sensor_id;sensor_type;location;lat;lon;timestamp;temperature;humidity
37274;DHT22;23161;51.250;5.554;2023-03-21T00:01:34;10.10;99.90
37274;DHT22;23161;51.250;5.554;2023-03-21T00:04:01;10.10;99.90
37274;DHT22;23161;51.250;5.554;2023-03-21T00:06:27;10.10;99.90
37274;DHT22;23161;51.250;5.554;2023-03-21T00:08:53;10.10;99.90
37274;DHT22;23161;51.250;5.554;2023-03-21T00:11:19;10.10;99.90
37274;DHT22;23161;51.250;5.554;2023-03-21T00:13:46;10.10;99.90
37274;DHT22;23161;51.250;5.554;2023-03-21T00:16:17;10.10;99.90
37274;DHT22;23161;51.250;5.554;2023-03-21T00:18:45;10.10;99.90
37274;DHT22;23161;51.250;5.554;2023-03-21T00:21:14;10.00;99.90
37274;DHT22;23161;51.250;5.554;2023-03-21T00:23:41;10.10;99.90
37274;DHT22;23161;51.250;5.554;2023-03-21T00:26:08;10.10;99.90
37274;DHT22;23161;51.250;5.554;2023-03-21T00:28:36;10.00;99.90
37274;DHT22;23161;51.250;5.554;2023-03-21T00:31:03;10.00;99.90
37274;DHT22;23161;51.250;5.554;2023-03-21T00:33:29;10.00;99.90
37274;DHT22;23161;51.250;5.554;2023-03-21T00:35:56;9.90;99.90
37274;DHT22;23161;51.250;5.554;2023-03-21T00:38:22;9.90;99.90
37274;DHT22;23161;51.250;5.554;2023-03-21T00:40:49;9.80;99.90
37274;DHT22;23161;51.250;5.554;2023-03-21T00:43:16;9.80;99.90
37274;DHT22;23161;51.250;5.554;2023-03-21T00:45:43;9.80;99.90
37274;DHT22;23161;51.250;5.554;2023-03-21T00:48:09;9.80;99.90
37274;DHT22;23161;51.250;5.554;2023-03-21T00:50:36;9.80;99.90
37274;DHT22;23161;51.250;5.554;2023-03-21T00:53:05;9.70;99.90
37274;DHT22;23161;51.250;5.554;2023-03-21T00:55:31;9.70;99.90
37274;DHT22;23161;51.250;5.554;2023-03-21T00:57:57;9.70;99.90
37274;DHT22;23161;51.250;5.554;2023-03-21T01:00:23;9.60;99.90
37274;DHT22;23161;51.250;5.554;2023-03-21T01:02:49;9.60;99.90
37274;DHT22;23161;51.250;5.554;2023-03-21T01:05:27;9.50;99.90
37274;DHT22;23161;51.250;5.554;2023-03-21T01:08:11;9.40;99.90
37274;DHT22;23161;51.250;5.554;2023-03-21T01:10:40;9.40;99.90
37274;DHT22;23161;51.250;5.554;2023-03-21T01:13:07;9.40;99.90
37274;DHT22;23161;51.250;5.554;2023-03-21T01:15:34;9.60;99.90
37274;DHT22;23161;51.250;5.554;2023-03-21T01:18:00;9.30;99.90
37274;DHT22;23161;51.250;5.554;2023-03-21T01:20:26;9.40;99.90
37274;DHT22;23161;51.250;5.554;2023-03-21T01:22:52;9.40;99.90
37274;DHT22;23161;51.250;5.554;2023-03-21T01:25:18;9.30;99.90
37274;DHT22;23161;51.250;5.554;2023-03-21T01:27:44;9.40;99.90
37274;DHT22;23161;51.250;5.554;2023-03-21T01:30:11;9.40;99.90
37274;DHT22;23161;51.250;5.554;2023-03-21T01:32:37;9.40;99.90
37274;DHT22;23161;51.250;5.554;2023-03-21T01:35:03;9.50;99.90
37274;DHT22;23161;51.250;5.554;2023-03-21T01:37:29;9.40;99.90
37274;DHT22;23161;51.250;5.554;2023-03-21T01:39:57;9.50;99.90
37274;DHT22;23161;51.250;5.554;2023-03-21T01:42:23;9.50;99.90
37274;DHT22;23161;51.250;5.554;2023-03-21T01:44:59;9.50;99.90
37274;DHT22;23161;51.250;5.554;2023-03-21T01:47:35;9.50;99.90
37274;DHT22;23161;51.250;5.554;2023-03-21T01:50:05;9.50;99.90
37274;DHT22;23161;51.250;5.554;2023-03-21T01:52:39;9.50;99.90
37274;DHT22;23161;51.250;5.554;2023-03-21T01:55:13;9.50;99.90
37274;DHT22;23161;51.250;5.554;2023-03-21T01:58:04;9.50;99.90
37274;DHT22;23161;51.250;5.554;2023-03-21T02:00:34;9.60;99.90
37274;DHT22;23161;51.250;5.554;2023-03-21T02:03:15;9.50;99.90
37274;DHT22;23161;51.250;5.554;2023-03-21T02:06:01;9.50;99.90
37274;DHT22;23161;51.250;5.554;2023-03-21T02:08:36;9.60;99.90
37274;DHT22;23161;51.250;5.554;2023-03-21T02:11:07;9.50;99.90
37274;DHT22;23161;51.250;5.554;2023-03-21T02:13:41;9.60;99.90
37274;DHT22;23161;51.250;5.554;2023-03-21T02:16:15;9.50;99.90
37274;DHT22;23161;51.250;5.554;2023-03-21T02:32:10;9.50;99.90
37274;DHT22;23161;51.250;5.554;2023-03-21T02:42:42;9.40;99.90
37274;DHT22;23161;51.250;5.554;2023-03-21T02:45:22;9.40;99.90
37274;DHT22;23161;51.250;5.554;2023-03-21T02:48:04;9.40;99.90
37274;DHT22;23161;51.250;5.554;2023-03-21T02:50:51;9.30;99.90
37274;DHT22;23161;51.250;5.554;2023-03-21T02:53:23;9.20;99.90
37274;DHT22;23161;51.250;5.554;2023-03-21T02:55:51;9.20;99.90
37274;DHT22;23161;51.250;5.554;2023-03-21T02:58:20;9.20;99.90
37274;DHT22;23161;51.250;5.554;2023-03-21T03:00:52;9.10;99.90
37274;DHT22;23161;51.250;5.554;2023-03-21T03:03:43;9.10;99.90
37274;DHT22;23161;51.250;5.554;2023-03-21T03:06:16;9.10;99.90
37274;DHT22;23161;51.250;5.554;2023-03-21T03:09:06;9.20;99.90
37274;DHT22;23161;51.250;5.554;2023-03-21T03:11:42;9.20;99.90
37274;DHT22;23161;51.250;5.554;2023-03-21T03:14:25;9.10;99.90
37274;DHT22;23161;51.250;5.554;2023-03-21T03:20:29;9.10;99.90
37274;DHT22;23161;51.250;5.554;2023-03-21T03:28:18;9.10;99.90
37274;DHT22;23161;51.250;5.554;2023-03-21T03:30:47;9.10;99.90
37274;DHT22;23161;51.250;5.554;2023-03-21T03:33:15;9.20;99.90
37274;DHT22;23161;51.250;5.554;2023-03-21T03:35:43;9.10;99.90
37274;DHT22;23161;51.250;5.554;2023-03-21T03:38:11;9.10;99.90
37274;DHT22;23161;51.250;5.554;2023-03-21T03:40:40;9.20;99.90
37274;DHT22;23161;51.250;5.554;2023-03-21T03:43:31;9.10;99.90
37274;DHT22;23161;51.250;5.554;2023-03-21T03:46:06;9.20;99.90
37274;DHT22;23161;51.250;5.554;2023-03-21T03:48:42;9.20;99.90
37274;DHT22;23161;51.250;5.554;2023-03-21T03:51:23;9.20;99.90
37274;DHT22;23161;51.250;5.554;2023-03-21T03:54:26;9.20;99.90
37274;DHT22;23161;51.250;5.554;2023-03-21T03:56:55;9.30;99.90
37274;DHT22;23161;51.250;5.554;2023-03-21T03:59:21;9.40;99.90
37274;DHT22;23161;51.250;5.554;2023-03-21T04:02:07;9.40;99.90
37274;DHT22;23161;51.250;5.554;2023-03-21T04:04:33;9.40;99.90
37274;DHT22;23161;51.250;5.554;2023-03-21T04:06:59;9.40;99.90
37274;DHT22;23161;51.250;5.554;2023-03-21T04:09:28;9.50;99.90
37274;DHT22;23161;51.250;5.554;2023-03-21T04:11:55;9.50;99.90
37274;DHT22;23161;51.250;5.554;2023-03-21T04:14:22;9.50;99.90
37274;DHT22;23161;51.250;5.554;2023-03-21T04:16:49;9.60;99.90
37274;DHT22;23161;51.250;5.554;2023-03-21T04:19:17;9.60;99.90
37274;DHT22;23161;51.250;5.554;2023-03-21T04:21:46;9.60;99.90
37274;DHT22;23161;51.250;5.554;2023-03-21T04:24:12;9.60;99.90
37274;DHT22;23161;51.250;5.554;2023-03-21T04:26:41;9.70;99.90
37274;DHT22;23161;51.250;5.554;2023-03-21T04:29:35;9.70;99.90
37274;DHT22;23161;51.250;5.554;2023-03-21T04:32:20;9.70;99.90
37274;DHT22;23161;51.250;5.554;2023-03-21T04:35:00;9.70;99.90
37274;DHT22;23161;51.250;5.554;2023-03-21T04:37:27;9.70;99.90
37274;DHT22;23161;51.250;5.554;2023-03-21T04:39:54;9.80;99.90
37274;DHT22;23161;51.250;5.554;2023-03-21T04:42:20;9.80;99.90
37274;DHT22;23161;51.250;5.554;2023-03-21T04:44:47;9.80;99.90
37274;DHT22;23161;51.250;5.554;2023-03-21T04:47:14;9.80;99.90
37274;DHT22;23161;51.250;5.554;2023-03-21T04:49:42;9.90;99.90
37274;DHT22;23161;51.250;5.554;2023-03-21T04:52:10;9.90;99.90
37274;DHT22;23161;51.250;5.554;2023-03-21T04:54:35;9.90;99.90
37274;DHT22;23161;51.250;5.554;2023-03-21T04:57:02;9.90;99.90
37274;DHT22;23161;51.250;5.554;2023-03-21T04:59:29;9.90;99.90
37274;DHT22;23161;51.250;5.554;2023-03-21T05:01:56;9.90;99.90
37274;DHT22;23161;51.250;5.554;2023-03-21T05:04:23;9.90;99.90
37274;DHT22;23161;51.250;5.554;2023-03-21T05:06:51;9.90;99.90
37274;DHT22;23161;51.250;5.554;2023-03-21T05:09:17;9.90;99.90
37274;DHT22;23161;51.250;5.554;2023-03-21T05:11:43;10.00;99.90
37274;DHT22;23161;51.250;5.554;2023-03-21T05:14:16;9.90;99.90
37274;DHT22;23161;51.250;5.554;2023-03-21T05:16:43;9.90;99.90
37274;DHT22;23161;51.250;5.554;2023-03-21T05:19:15;10.00;99.90
37274;DHT22;23161;51.250;5.554;2023-03-21T05:21:42;10.00;99.90
37274;DHT22;23161;51.250;5.554;2023-03-21T05:24:19;10.00;99.90
37274;DHT22;23161;51.250;5.554;2023-03-21T05:26:46;10.00;99.90
37274;DHT22;23161;51.250;5.554;2023-03-21T05:29:18;10.00;99.90
37274;DHT22;23161;51.250;5.554;2023-03-21T05:31:50;10.00;99.90
37274;DHT22;23161;51.250;5.554;2023-03-21T05:34:16;10.00;99.90
37274;DHT22;23161;51.250;5.554;2023-03-21T05:36:43;10.10;99.90
37274;DHT22;23161;51.250;5.554;2023-03-21T05:39:10;10.00;99.90
37274;DHT22;23161;51.250;5.554;2023-03-21T05:41:41;9.90;99.90
37274;DHT22;23161;51.250;5.554;2023-03-21T05:44:08;10.00;99.90
37274;DHT22;23161;51.250;5.554;2023-03-21T05:46:36;10.00;99.90
37274;DHT22;23161;51.250;5.554;2023-03-21T05:49:02;10.00;99.90
37274;DHT22;23161;51.250;5.554;2023-03-21T05:51:28;9.90;99.90
37274;DHT22;23161;51.250;5.554;2023-03-21T05:53:55;10.00;99.90
37274;DHT22;23161;51.250;5.554;2023-03-21T05:56:21;10.00;99.90
37274;DHT22;23161;51.250;5.554;2023-03-21T05:58:57;10.00;99.90
37274;DHT22;23161;51.250;5.554;2023-03-21T06:01:24;10.20;99.90
37274;DHT22;23161;51.250;5.554;2023-03-21T06:03:57;10.00;99.90
37274;DHT22;23161;51.250;5.554;2023-03-21T06:06:26;10.10;99.90
37274;DHT22;23161;51.250;5.554;2023-03-21T06:08:54;10.10;99.90
37274;DHT22;23161;51.250;5.554;2023-03-21T06:11:33;10.20;99.90
37274;DHT22;23161;51.250;5.554;2023-03-21T06:14:29;10.10;99.90
37274;DHT22;23161;51.250;5.554;2023-03-21T06:17:13;10.10;99.90
37274;DHT22;23161;51.250;5.554;2023-03-21T06:19:55;10.20;99.90
37274;DHT22;23161;51.250;5.554;2023-03-21T06:22:31;10.10;99.90
37274;DHT22;23161;51.250;5.554;2023-03-21T06:24:57;10.10;99.90
37274;DHT22;23161;51.250;5.554;2023-03-21T06:27:23;10.10;99.90
37274;DHT22;23161;51.250;5.554;2023-03-21T06:29:54;10.20;99.90
37274;DHT22;23161;51.250;5.554;2023-03-21T06:32:21;10.10;99.90
37274;DHT22;23161;51.250;5.554;2023-03-21T06:34:52;10.10;99.90
37274;DHT22;23161;51.250;5.554;2023-03-21T06:37:19;10.10;99.90
37274;DHT22;23161;51.250;5.554;2023-03-21T06:39:45;10.10;99.90
37274;DHT22;23161;51.250;5.554;2023-03-21T06:42:12;10.10;99.90
37274;DHT22;23161;51.250;5.554;2023-03-21T06:44:39;10.20;99.90
37274;DHT22;23161;51.250;5.554;2023-03-21T06:47:09;10.20;99.90
37274;DHT22;23161;51.250;5.554;2023-03-21T06:49:35;10.10;99.90
37274;DHT22;23161;51.250;5.554;2023-03-21T06:52:06;10.20;99.90
37274;DHT22;23161;51.250;5.554;2023-03-21T06:54:32;10.20;99.90
37274;DHT22;23161;51.250;5.554;2023-03-21T06:57:04;10.30;99.90
37274;DHT22;23161;51.250;5.554;2023-03-21T06:59:33;10.30;99.90
37274;DHT22;23161;51.250;5.554;2023-03-21T07:02:19;10.30;99.90
37274;DHT22;23161;51.250;5.554;2023-03-21T07:04:55;10.40;99.90
37274;DHT22;23161;51.250;5.554;2023-03-21T07:07:25;10.40;99.90
37274;DHT22;23161;51.250;5.554;2023-03-21T07:09:52;10.40;99.90
37274;DHT22;23161;51.250;5.554;2023-03-21T07:12:18;10.40;99.90
37274;DHT22;23161;51.250;5.554;2023-03-21T07:15:03;10.40;99.90
37274;DHT22;23161;51.250;5.554;2023-03-21T07:17:30;10.50;99.90
37274;DHT22;23161;51.250;5.554;2023-03-21T07:19:56;10.50;99.90
37274;DHT22;23161;51.250;5.554;2023-03-21T07:22:22;10.50;99.90
37274;DHT22;23161;51.250;5.554;2023-03-21T07:24:48;10.50;99.90
37274;DHT22;23161;51.250;5.554;2023-03-21T07:27:15;10.50;99.90
37274;DHT22;23161;51.250;5.554;2023-03-21T07:29:41;10.40;99.90
37274;DHT22;23161;51.250;5.554;2023-03-21T07:32:09;10.40;99.90
37274;DHT22;23161;51.250;5.554;2023-03-21T07:34:35;10.40;99.90
37274;DHT22;23161;51.250;5.554;2023-03-21T07:37:03;10.40;99.90
37274;DHT22;23161;51.250;5.554;2023-03-21T07:39:29;10.40;99.90
37274;DHT22;23161;51.250;5.554;2023-03-21T07:41:58;10.30;99.90
37274;DHT22;23161;51.250;5.554;2023-03-21T07:44:30;10.40;99.90
37274;DHT22;23161;51.250;5.554;2023-03-21T07:47:06;10.30;99.90
37274;DHT22;23161;51.250;5.554;2023-03-21T07:49:32;10.40;99.90
37274;DHT22;23161;51.250;5.554;2023-03-21T07:51:58;10.40;99.90
37274;DHT22;23161;51.250;5.554;2023-03-21T07:54:24;10.40;99.90
37274;DHT22;23161;51.250;5.554;2023-03-21T07:56:53;10.40;99.90
37274;DHT22;23161;51.250;5.554;2023-03-21T07:59:19;10.40;99.90
37274;DHT22;23161;51.250;5.554;2023-03-21T08:01:45;10.50;99.90
37274;DHT22;23161;51.250;5.554;2023-03-21T08:04:11;10.60;99.90
37274;DHT22;23161;51.250;5.554;2023-03-21T08:06:38;10.70;99.90
37274;DHT22;23161;51.250;5.554;2023-03-21T08:09:04;10.80;99.90
37274;DHT22;23161;51.250;5.554;2023-03-21T08:11:30;11.00;99.90
37274;DHT22;23161;51.250;5.554;2023-03-21T08:13:58;11.20;99.90
37274;DHT22;23161;51.250;5.554;2023-03-21T08:16:24;11.30;99.90
37274;DHT22;23161;51.250;5.554;2023-03-21T08:18:50;11.40;99.90
37274;DHT22;23161;51.250;5.554;2023-03-21T08:21:16;11.30;99.90
37274;DHT22;23161;51.250;5.554;2023-03-21T08:23:41;11.30;99.90
37274;DHT22;23161;51.250;5.554;2023-03-21T08:26:08;11.20;99.90
37274;DHT22;23161;51.250;5.554;2023-03-21T08:28:35;11.30;99.90
37274;DHT22;23161;51.250;5.554;2023-03-21T08:31:06;11.20;99.90
37274;DHT22;23161;51.250;5.554;2023-03-21T08:33:33;11.00;99.90
37274;DHT22;23161;51.250;5.554;2023-03-21T08:35:59;10.90;99.90
37274;DHT22;23161;51.250;5.554;2023-03-21T08:38:25;10.80;99.90
37274;DHT22;23161;51.250;5.554;2023-03-21T08:40:57;10.70;99.90
37274;DHT22;23161;51.250;5.554;2023-03-21T08:43:25;10.80;99.90
37274;DHT22;23161;51.250;5.554;2023-03-21T08:45:51;10.70;99.90
37274;DHT22;23161;51.250;5.554;2023-03-21T08:48:18;10.80;99.90
37274;DHT22;23161;51.250;5.554;2023-03-21T08:50:44;10.80;99.90
37274;DHT22;23161;51.250;5.554;2023-03-21T08:53:10;10.70;99.90
37274;DHT22;23161;51.250;5.554;2023-03-21T08:55:36;10.90;99.90
37274;DHT22;23161;51.250;5.554;2023-03-21T08:58:02;10.80;99.90
37274;DHT22;23161;51.250;5.554;2023-03-21T09:00:29;10.70;99.90
37274;DHT22;23161;51.250;5.554;2023-03-21T09:02:55;10.90;99.90
37274;DHT22;23161;51.250;5.554;2023-03-21T09:05:24;10.90;99.90
37274;DHT22;23161;51.250;5.554;2023-03-21T09:07:51;11.00;99.90
37274;DHT22;23161;51.250;5.554;2023-03-21T09:10:19;11.00;99.90
37274;DHT22;23161;51.250;5.554;2023-03-21T09:12:47;11.00;99.90
37274;DHT22;23161;51.250;5.554;2023-03-21T09:15:13;11.10;99.90
37274;DHT22;23161;51.250;5.554;2023-03-21T09:17:40;11.20;99.90
37274;DHT22;23161;51.250;5.554;2023-03-21T09:20:12;11.20;99.90
37274;DHT22;23161;51.250;5.554;2023-03-21T09:22:50;11.30;99.90
37274;DHT22;23161;51.250;5.554;2023-03-21T09:25:19;11.30;99.90
37274;DHT22;23161;51.250;5.554;2023-03-21T09:27:45;11.30;99.90
37274;DHT22;23161;51.250;5.554;2023-03-21T09:30:14;11.30;99.90
37274;DHT22;23161;51.250;5.554;2023-03-21T09:32:41;11.40;99.90
37274;DHT22;23161;51.250;5.554;2023-03-21T09:35:07;11.50;99.90
37274;DHT22;23161;51.250;5.554;2023-03-21T09:37:36;11.50;99.90
37274;DHT22;23161;51.250;5.554;2023-03-21T09:40:50;11.50;99.90
37274;DHT22;23161;51.250;5.554;2023-03-21T09:51:22;11.90;99.90
37274;DHT22;23161;51.250;5.554;2023-03-21T09:53:53;12.20;99.90
37274;DHT22;23161;51.250;5.554;2023-03-21T09:56:20;12.30;99.90
37274;DHT22;23161;51.250;5.554;2023-03-21T09:58:53;12.50;99.90
37274;DHT22;23161;51.250;5.554;2023-03-21T10:01:28;12.70;99.90
37274;DHT22;23161;51.250;5.554;2023-03-21T10:04:11;12.60;99.90
37274;DHT22;23161;51.250;5.554;2023-03-21T10:06:39;12.60;99.90
37274;DHT22;23161;51.250;5.554;2023-03-21T10:09:16;12.60;99.90
37274;DHT22;23161;51.250;5.554;2023-03-21T10:12:05;12.40;99.90
37274;DHT22;23161;51.250;5.554;2023-03-21T10:14:46;12.40;99.90
37274;DHT22;23161;51.250;5.554;2023-03-21T10:17:21;12.40;99.90
37274;DHT22;23161;51.250;5.554;2023-03-21T10:20:17;12.30;99.90
37274;DHT22;23161;51.250;5.554;2023-03-21T10:22:43;12.40;99.90
37274;DHT22;23161;51.250;5.554;2023-03-21T10:25:16;12.40;99.90
37274;DHT22;23161;51.250;5.554;2023-03-21T10:27:43;12.30;99.90
37274;DHT22;23161;51.250;5.554;2023-03-21T10:30:21;12.80;99.90
37274;DHT22;23161;51.250;5.554;2023-03-21T10:32:49;12.30;99.90
37274;DHT22;23161;51.250;5.554;2023-03-21T10:35:15;12.50;99.90
37274;DHT22;23161;51.250;5.554;2023-03-21T10:37:41;12.80;99.90
37274;DHT22;23161;51.250;5.554;2023-03-21T10:40:15;13.00;99.90
37274;DHT22;23161;51.250;5.554;2023-03-21T10:42:41;13.40;99.90
37274;DHT22;23161;51.250;5.554;2023-03-21T10:45:18;13.60;99.90
37274;DHT22;23161;51.250;5.554;2023-03-21T10:47:47;13.50;99.90
37274;DHT22;23161;51.250;5.554;2023-03-21T10:50:15;13.50;99.90
37274;DHT22;23161;51.250;5.554;2023-03-21T10:52:56;13.30;99.90
37274;DHT22;23161;51.250;5.554;2023-03-21T10:55:28;13.30;99.90
37274;DHT22;23161;51.250;5.554;2023-03-21T10:58:03;13.40;99.90
37274;DHT22;23161;51.250;5.554;2023-03-21T11:00:39;13.20;99.90
37274;DHT22;23161;51.250;5.554;2023-03-21T11:03:14;13.20;99.90
37274;DHT22;23161;51.250;5.554;2023-03-21T11:05:45;13.20;99.90
37274;DHT22;23161;51.250;5.554;2023-03-21T11:08:16;13.30;99.90
37274;DHT22;23161;51.250;5.554;2023-03-21T11:13:22;13.50;99.90
37274;DHT22;23161;51.250;5.554;2023-03-21T11:18:22;13.40;99.90
37274;DHT22;23161;51.250;5.554;2023-03-21T11:20:54;13.50;99.90
37274;DHT22;23161;51.250;5.554;2023-03-21T11:23:24;13.50;99.90
37274;DHT22;23161;51.250;5.554;2023-03-21T11:25:50;13.60;99.90
37274;DHT22;23161;51.250;5.554;2023-03-21T11:28:31;13.40;99.90
37274;DHT22;23161;51.250;5.554;2023-03-21T11:31:00;13.70;99.90
37274;DHT22;23161;51.250;5.554;2023-03-21T11:33:34;13.70;99.90
37274;DHT22;23161;51.250;5.554;2023-03-21T11:36:04;13.90;99.90
37274;DHT22;23161;51.250;5.554;2023-03-21T11:38:36;14.10;99.90
37274;DHT22;23161;51.250;5.554;2023-03-21T11:41:04;14.40;99.90
37274;DHT22;23161;51.250;5.554;2023-03-21T11:43:35;14.70;99.90
37274;DHT22;23161;51.250;5.554;2023-03-21T11:46:08;14.90;99.90
37274;DHT22;23161;51.250;5.554;2023-03-21T11:48:45;15.00;99.90
37274;DHT22;23161;51.250;5.554;2023-03-21T11:54:09;15.10;99.90
37274;DHT22;23161;51.250;5.554;2023-03-21T11:57:23;15.50;99.90
37274;DHT22;23161;51.250;5.554;2023-03-21T12:04:56;15.90;99.90
37274;DHT22;23161;51.250;5.554;2023-03-21T12:07:44;15.70;99.90
37274;DHT22;23161;51.250;5.554;2023-03-21T12:15:49;15.60;99.90
37274;DHT22;23161;51.250;5.554;2023-03-21T12:18:34;16.00;99.90
37274;DHT22;23161;51.250;5.554;2023-03-21T12:32:28;16.60;99.90
37274;DHT22;23161;51.250;5.554;2023-03-21T12:35:08;16.70;99.90
37274;DHT22;23161;51.250;5.554;2023-03-21T12:38:03;16.90;99.90
37274;DHT22;23161;51.250;5.554;2023-03-21T12:40:42;16.60;99.90
37274;DHT22;23161;51.250;5.554;2023-03-21T12:46:21;16.90;99.90
37274;DHT22;23161;51.250;5.554;2023-03-21T12:48:52;16.90;99.90
37274;DHT22;23161;51.250;5.554;2023-03-21T12:51:28;16.70;99.90
37274;DHT22;23161;51.250;5.554;2023-03-21T13:01:41;17.10;99.90
37274;DHT22;23161;51.250;5.554;2023-03-21T13:04:41;16.90;99.90
37274;DHT22;23161;51.250;5.554;2023-03-21T13:07:13;16.80;99.90
37274;DHT22;23161;51.250;5.554;2023-03-21T13:09:40;16.70;99.90
37274;DHT22;23161;51.250;5.554;2023-03-21T13:12:37;16.40;99.90
37274;DHT22;23161;51.250;5.554;2023-03-21T13:20:52;16.20;99.90
37274;DHT22;23161;51.250;5.554;2023-03-21T13:23:24;16.30;99.90
37274;DHT22;23161;51.250;5.554;2023-03-21T13:25:57;16.60;99.90
37274;DHT22;23161;51.250;5.554;2023-03-21T13:28:28;16.70;99.90
37274;DHT22;23161;51.250;5.554;2023-03-21T13:31:18;16.70;99.90
37274;DHT22;23161;51.250;5.554;2023-03-21T13:33:49;17.00;99.90
37274;DHT22;23161;51.250;5.554;2023-03-21T13:36:21;17.10;99.90
37274;DHT22;23161;51.250;5.554;2023-03-21T13:38:50;17.30;99.90
37274;DHT22;23161;51.250;5.554;2023-03-21T13:41:34;17.70;99.90
37274;DHT22;23161;51.250;5.554;2023-03-21T13:49:01;17.60;99.90
37274;DHT22;23161;51.250;5.554;2023-03-21T13:54:21;16.90;99.90
37274;DHT22;23161;51.250;5.554;2023-03-21T13:56:49;16.70;99.90
37274;DHT22;23161;51.250;5.554;2023-03-21T13:59:42;16.70;99.90
37274;DHT22;23161;51.250;5.554;2023-03-21T14:04:39;16.80;99.90
37274;DHT22;23161;51.250;5.554;2023-03-21T14:07:12;16.70;99.90
37274;DHT22;23161;51.250;5.554;2023-03-21T14:09:43;16.60;99.90
37274;DHT22;23161;51.250;5.554;2023-03-21T14:12:14;16.40;99.90
37274;DHT22;23161;51.250;5.554;2023-03-21T14:15:05;16.30;99.90
37274;DHT22;23161;51.250;5.554;2023-03-21T14:17:34;16.20;99.90
37274;DHT22;23161;51.250;5.554;2023-03-21T14:20:18;16.30;99.90
37274;DHT22;23161;51.250;5.554;2023-03-21T14:22:48;16.30;99.90
37274;DHT22;23161;51.250;5.554;2023-03-21T14:25:18;16.30;99.90
37274;DHT22;23161;51.250;5.554;2023-03-21T14:27:48;16.70;99.90
37274;DHT22;23161;51.250;5.554;2023-03-21T14:30:24;16.40;99.90
37274;DHT22;23161;51.250;5.554;2023-03-21T14:32:58;16.50;99.90
37274;DHT22;23161;51.250;5.554;2023-03-21T14:35:30;16.40;99.90
37274;DHT22;23161;51.250;5.554;2023-03-21T14:38:03;16.30;99.90
37274;DHT22;23161;51.250;5.554;2023-03-21T14:42:55;16.00;99.90
37274;DHT22;23161;51.250;5.554;2023-03-21T14:45:28;16.10;99.90
37274;DHT22;23161;51.250;5.554;2023-03-21T14:48:14;16.00;99.90
37274;DHT22;23161;51.250;5.554;2023-03-21T14:50:59;15.90;99.90
37274;DHT22;23161;51.250;5.554;2023-03-21T14:53:32;16.00;99.90
37274;DHT22;23161;51.250;5.554;2023-03-21T14:56:19;15.90;99.90
37274;DHT22;23161;51.250;5.554;2023-03-21T14:58:46;16.00;99.90
37274;DHT22;23161;51.250;5.554;2023-03-21T15:01:16;15.80;99.90
37274;DHT22;23161;51.250;5.554;2023-03-21T15:03:45;15.80;99.90
37274;DHT22;23161;51.250;5.554;2023-03-21T15:06:13;15.80;99.90
37274;DHT22;23161;51.250;5.554;2023-03-21T15:08:51;15.70;99.90
37274;DHT22;23161;51.250;5.554;2023-03-21T15:11:17;15.70;99.90
37274;DHT22;23161;51.250;5.554;2023-03-21T15:13:49;15.60;99.90
37274;DHT22;23161;51.250;5.554;2023-03-21T15:16:19;15.50;99.90
37274;DHT22;23161;51.250;5.554;2023-03-21T15:18:46;15.50;99.90
37274;DHT22;23161;51.250;5.554;2023-03-21T15:23:46;15.30;99.90
37274;DHT22;23161;51.250;5.554;2023-03-21T15:26:18;15.30;99.90
37274;DHT22;23161;51.250;5.554;2023-03-21T15:28:47;15.10;99.90
37274;DHT22;23161;51.250;5.554;2023-03-21T15:31:19;15.20;99.90
37274;DHT22;23161;51.250;5.554;2023-03-21T15:33:51;15.20;99.90
37274;DHT22;23161;51.250;5.554;2023-03-21T15:36:25;15.20;99.90
37274;DHT22;23161;51.250;5.554;2023-03-21T15:38:51;15.00;99.90
37274;DHT22;23161;51.250;5.554;2023-03-21T15:43:47;15.00;99.90
37274;DHT22;23161;51.250;5.554;2023-03-21T15:46:15;14.90;99.90
37274;DHT22;23161;51.250;5.554;2023-03-21T15:48:42;14.90;99.90
37274;DHT22;23161;51.250;5.554;2023-03-21T15:51:20;14.90;99.90
37274;DHT22;23161;51.250;5.554;2023-03-21T15:53:47;14.80;99.90
37274;DHT22;23161;51.250;5.554;2023-03-21T15:56:15;14.80;99.90
37274;DHT22;23161;51.250;5.554;2023-03-21T15:58:47;14.80;99.90
37274;DHT22;23161;51.250;5.554;2023-03-21T16:01:17;14.70;99.90
37274;DHT22;23161;51.250;5.554;2023-03-21T16:03:57;14.90;99.90
37274;DHT22;23161;51.250;5.554;2023-03-21T16:06:31;15.00;99.90
37274;DHT22;23161;51.250;5.554;2023-03-21T16:09:17;15.00;99.90
37274;DHT22;23161;51.250;5.554;2023-03-21T16:11:53;15.20;99.90
37274;DHT22;23161;51.250;5.554;2023-03-21T16:14:20;15.30;99.90
37274;DHT22;23161;51.250;5.554;2023-03-21T16:16:47;14.80;99.90
37274;DHT22;23161;51.250;5.554;2023-03-21T16:19:15;15.10;99.90
37274;DHT22;23161;51.250;5.554;2023-03-21T16:21:41;14.90;99.90
37274;DHT22;23161;51.250;5.554;2023-03-21T16:24:09;14.80;99.90
37274;DHT22;23161;51.250;5.554;2023-03-21T16:26:37;14.90;99.90
37274;DHT22;23161;51.250;5.554;2023-03-21T16:29:06;14.90;99.90
37274;DHT22;23161;51.250;5.554;2023-03-21T16:31:34;14.80;99.90
37274;DHT22;23161;51.250;5.554;2023-03-21T16:34:01;14.80;99.90
37274;DHT22;23161;51.250;5.554;2023-03-21T16:36:36;14.70;99.90
37274;DHT22;23161;51.250;5.554;2023-03-21T16:39:24;14.70;99.90
37274;DHT22;23161;51.250;5.554;2023-03-21T16:41:51;14.50;99.90
37274;DHT22;23161;51.250;5.554;2023-03-21T16:44:18;14.40;99.90
37274;DHT22;23161;51.250;5.554;2023-03-21T16:46:44;14.40;99.90
37274;DHT22;23161;51.250;5.554;2023-03-21T16:49:26;14.30;99.90
37274;DHT22;23161;51.250;5.554;2023-03-21T16:51:54;14.20;99.90
37274;DHT22;23161;51.250;5.554;2023-03-21T16:54:20;12.80;99.90
37274;DHT22;23161;51.250;5.554;2023-03-21T16:56:51;14.10;99.90
37274;DHT22;23161;51.250;5.554;2023-03-21T16:59:18;14.20;99.90
37274;DHT22;23161;51.250;5.554;2023-03-21T17:01:44;13.90;99.90
37274;DHT22;23161;51.250;5.554;2023-03-21T17:04:13;13.80;99.90
37274;DHT22;23161;51.250;5.554;2023-03-21T17:06:53;13.70;99.90
37274;DHT22;23161;51.250;5.554;2023-03-21T17:09:21;13.70;99.90
37274;DHT22;23161;51.250;5.554;2023-03-21T17:11:48;13.70;99.90
37274;DHT22;23161;51.250;5.554;2023-03-21T17:14:14;13.60;99.90
37274;DHT22;23161;51.250;5.554;2023-03-21T17:16:43;13.70;99.90
37274;DHT22;23161;51.250;5.554;2023-03-21T17:19:12;13.50;99.90
37274;DHT22;23161;51.250;5.554;2023-03-21T17:21:39;13.40;99.90
37274;DHT22;23161;51.250;5.554;2023-03-21T17:24:05;13.30;99.90
37274;DHT22;23161;51.250;5.554;2023-03-21T17:26:31;13.40;99.90
37274;DHT22;23161;51.250;5.554;2023-03-21T17:28:57;13.30;99.90
37274;DHT22;23161;51.250;5.554;2023-03-21T17:31:26;13.30;99.90
37274;DHT22;23161;51.250;5.554;2023-03-21T17:33:52;13.30;99.90
37274;DHT22;23161;51.250;5.554;2023-03-21T17:36:38;13.20;99.90
37274;DHT22;23161;51.250;5.554;2023-03-21T17:39:11;13.10;99.90
37274;DHT22;23161;51.250;5.554;2023-03-21T17:41:38;13.10;99.90
37274;DHT22;23161;51.250;5.554;2023-03-21T17:44:04;13.20;99.90